X  Cerrar Datos meteorológicos de aviación METAR     EHKD De Kooy Airport
Temperatura
2°C Temperatura
0°C Punto de rocío
87% Humedad



Viento
16 MPH
26 KM/H
7 M/S
14 NUDO



70°
ENE
Condiciones actuales

Ligero  Lluvia, Ligero  Llovizna Ligero Lluvia, Ligero Llovizna
Presión 1001.02 (hPa) - 29.56 (inHg)
Visibilidad 5.6 (milla) - 9 (km)
Aeropuerto
Código de aeropuerto EHKD

localidad: De Kooy Airport
Distancia: 34 (mi)

Metar:
EHKD 050255Z AUTO 07014KT 9000 -RADZ SCT005 BKN006 02/00 Q1001 YLO

Hora: 05-12-2023 03:55 CET